This is the latest recevied weather packets stored in our database for station/object DK8HC-WX. If no packets are shown the sender has not sent any weather packets the latest 10 day(s).
| Time | Temp. | Humidity | Pressure | Rain* | Wind** | Luminosity | Snow |
|---|---|---|---|---|---|---|---|
| 1777829506 | 22.78° C | 49% | 1011.6 hPa | - | - | - | - |
| 1777828906 | 22.22° C | 51% | 1011.7 hPa | - | - | - | - |
| 1777828306 | 22.22° C | 50% | 1011.6 hPa | - | - | - | - |
| 1777827706 | 22.78° C | 48% | 1011.5 hPa | - | - | - | - |
| 1777827106 | 22.22° C | 46% | 1011.4 hPa | - | - | - | - |
| 1777824106 | 23.33° C | 39% | 1011.6 hPa | - | - | - | - |
| 1777821705 | 26.11° C | 34% | 1011.7 hPa | - | - | - | - |
| 1777820505 | 28.33° C | 32% | 1012.1 hPa | - | - | - | - |
| 1777819905 | 30.56° C | 29% | 1012.2 hPa | - | - | - | - |
| 1777818105 | 31.11° C | 27% | 1012.2 hPa | - | - | - | - |
| 1777815105 | 31.67° C | 26% | 1012.7 hPa | - | - | - | - |
| 1777814505 | 32.22° C | 25% | 1012.9 hPa | - | - | - | - |
| 1777809705 | 28.89° C | 31% | 1013.2 hPa | - | - | - | - |
| 1777808505 | 28.89° C | 34% | 1013.3 hPa | - | - | - | - |
| 1777807905 | 30° C | 36% | 1013.9 hPa | - | - | - | - |
| 1777807305 | 28.89° C | 36% | 1014 hPa | - | - | - | - |
| 1777806707 | 29.44° C | 35% | 1013.9 hPa | - | - | - | - |
| 1777806107 | 29.44° C | 37% | 1014 hPa | - | - | - | - |
| 1777805505 | 28.33° C | 37% | 1013.8 hPa | - | - | - | - |
| 1777804905 | 27.78° C | 44% | 1014.1 hPa | - | - | - | - |
| 1777804305 | 27.78° C | 46% | 1014.2 hPa | - | - | - | - |
| 1777803705 | 28.33° C | 48% | 1014.4 hPa | - | - | - | - |
| 1777803104 | 27.22° C | 48% | 1014.5 hPa | - | - | - | - |
| 1777801905 | 28.89° C | 48% | 1014.7 hPa | - | - | - | - |
| 1777800704 | 25.56° C | 60% | 1014.6 hPa | - | - | - | - |
* Rain since midnight (hover to see other rain measurements)
** Current wind speed in m/s (hover to see current wind gust speed)